Skip Navigation LinksHome page > Weather > Current weather Skip Navigation Links

Current Weather

Burke Lakefront, Cleveland

For information only: do not use for flight planning or navigation.
Latest weather
Observation time Sunday, September 20, 2020 8:53 AM EDT
Local time Sunday, September 20, 2020 9:12 AM EDT
Flight conditions Visual Meteorological Conditions
Winds
Wind direction Southeast (140°)
Wind speed 10 mph
Visibility 10 mi.
Sky condition
Ceiling unlimited
Sky clear
Temperature 52°F
Dewpoint 37°F
Altimeter 30.47 in.Hg
Derived measurements
Relative humidity 57%
Density altitude -396 ft.
Sea-level pressure 30.48 in.Hg
Remarks
System requires maintenance.
Automated weather observing station with precipitation discriminator.
METAR KBKL 201253Z 14009KT 10SM CLR 11/03 A3047 RMK AO2 SLP320 T01110028 $

Settings

Location code

InnerDrive.Weather 4.0.6770.0 Release CLR 4.0.30319.42000
Copyright ©2018 Inner Drive Technology. All rights reserved. Portions Copyright ©1986-2018 David Braverman.

Find weather

Site navigation


Skip Navigation Links

Place info

Page info

PayPal - The safer, easier way to pay online!

Return home.

Copyright ©2020 Inner Drive Technology. Purveyors of fine, hand-crafted computer software. Page printed 2020-09-20T13:12:39 UTC.